aviador You're here:

KPRN Decoded Metar

in _UNIDENTIFIED
Report Time2018-01-16 12:56:00
UTC Time2018-01-16 13:29:48
Flight Rules vfr VFR
WindCalm
Visibility9999 m
Phenomena:N/A
Clouds:N/A
Expected CloudBase > 800 ft AGL from Temp-Dew spread
CeilingNone
Temp-2°C (ISA -16)
Dew Point-4°C (86% RH)
AAT-4.5°C
QNH1029 hPa
Density Alt-2,001 ft
Elevation453 ft
Report Wrong Elevation
Raw Report
METAR KPRN 161256Z AUTO 00000KT 10SM CLR M02/M04 A3040 RMK AO2 SLP295
T10171044=

Extra information for KPRN:More info

Metar Taf Metar & Taf Last 4 Metars F.Rules Stats Wind Profile Meteogram Temp Stats Metar ALERT Operation Metar Decoded Social comments